createdAt,value
2022-08-24T00:02:02.613Z,21.82
2022-08-24T00:04:32.177Z,21.71
2022-08-24T00:06:59.585Z,21.72
2022-08-24T00:09:26.137Z,21.66
2022-08-24T00:11:52.618Z,21.67
2022-08-24T00:14:19.225Z,21.64
2022-08-24T00:16:46.321Z,21.76
2022-08-24T00:19:12.932Z,21.79
2022-08-24T00:21:39.394Z,21.84
2022-08-24T00:24:06.769Z,21.80
2022-08-24T00:26:33.699Z,21.75
2022-08-24T00:29:05.413Z,21.79
2022-08-24T00:31:34.104Z,21.72
2022-08-24T00:34:00.641Z,21.71
2022-08-24T00:36:27.144Z,21.70
2022-08-24T00:38:53.656Z,21.68
2022-08-24T00:41:20.192Z,21.65
2022-08-24T00:43:58.962Z,21.61
2022-08-24T00:46:54.429Z,21.61
2022-08-24T00:49:33.807Z,21.67
2022-08-24T00:52:15.693Z,21.71
2022-08-24T00:54:46.743Z,21.66
2022-08-24T00:57:16.357Z,21.68
2022-08-24T00:59:54.444Z,21.64
2022-08-24T01:02:26.073Z,21.65
2022-08-24T01:04:59.758Z,21.75
2022-08-24T01:07:29.016Z,21.73
2022-08-24T01:09:59.298Z,21.67
2022-08-24T01:12:28.100Z,21.57
2022-08-24T01:14:58.068Z,21.63
2022-08-24T01:17:43.927Z,21.63
2022-08-24T01:20:11.812Z,21.64
2022-08-24T01:23:02.593Z,21.61
2022-08-24T01:25:32.450Z,21.57
2022-08-24T01:28:06.591Z,21.63
2022-08-24T01:30:36.471Z,21.59
2022-08-24T01:33:07.461Z,21.51
2022-08-24T01:35:36.969Z,21.63
2022-08-24T01:38:08.831Z,21.66
2022-08-24T01:40:48.809Z,21.61
2022-08-24T01:43:15.309Z,21.55
2022-08-24T01:45:43.288Z,21.46
2022-08-24T01:48:10.572Z,21.47
2022-08-24T01:50:37.210Z,21.44
2022-08-24T01:53:06.144Z,21.30
2022-08-24T01:55:33.134Z,21.29
2022-08-24T01:58:00.598Z,21.19
2022-08-24T02:00:27.417Z,21.14
2022-08-24T02:02:55.385Z,21.16
2022-08-24T02:05:22.205Z,21.18
2022-08-24T02:07:48.759Z,21.14
2022-08-24T02:10:15.992Z,21.27
2022-08-24T02:12:45.827Z,21.17
2022-08-24T02:15:12.900Z,21.07
2022-08-24T02:17:40.668Z,21.05
2022-08-24T02:20:08.040Z,21.09
2022-08-24T02:22:34.622Z,21.13
2022-08-24T02:25:01.689Z,21.17
2022-08-24T02:27:28.133Z,21.16
2022-08-24T02:29:54.669Z,21.15
2022-08-24T02:32:21.120Z,21.09
2022-08-24T02:34:47.583Z,21.13
2022-08-24T02:37:14.574Z,21.13
2022-08-24T02:39:41.163Z,21.16
2022-08-24T02:42:07.808Z,21.12
2022-08-24T02:44:35.055Z,21.03
2022-08-24T02:47:01.559Z,21.04
2022-08-24T02:49:28.086Z,20.97
2022-08-24T02:51:54.572Z,20.95
2022-08-24T02:54:21.168Z,20.97
2022-08-24T02:56:48.174Z,20.95
2022-08-24T02:59:16.315Z,20.96
2022-08-24T03:01:43.022Z,20.93
2022-08-24T03:04:10.856Z,20.89
2022-08-24T03:06:37.429Z,20.87
2022-08-24T03:09:04.461Z,20.85
2022-08-24T03:11:30.987Z,20.83
2022-08-24T03:13:59.074Z,20.78
2022-08-24T03:16:27.725Z,20.78
2022-08-24T03:18:54.382Z,20.77
2022-08-24T03:21:21.125Z,20.80
2022-08-24T03:23:47.721Z,20.74
2022-08-24T03:26:14.778Z,20.68
2022-08-24T03:28:41.330Z,20.67
2022-08-24T03:31:11.183Z,20.83
2022-08-24T03:33:37.842Z,20.95
2022-08-24T03:36:04.536Z,20.85
2022-08-24T03:38:31.077Z,20.78
2022-08-24T03:40:57.685Z,20.67
2022-08-24T03:43:43.007Z,20.75
2022-08-24T03:46:12.276Z,20.76
2022-08-24T03:48:44.285Z,20.78
2022-08-24T03:51:13.147Z,20.78
2022-08-24T03:53:40.045Z,20.78
2022-08-24T03:56:10.754Z,20.77
2022-08-24T03:58:38.412Z,20.75
2022-08-24T04:01:05.896Z,20.71
2022-08-24T04:03:40.336Z,20.66
2022-08-24T04:06:08.313Z,20.70
2022-08-24T04:08:35.256Z,20.71
2022-08-24T04:11:03.027Z,20.78
2022-08-24T04:13:31.933Z,20.92
2022-08-24T04:16:10.107Z,20.89
2022-08-24T04:18:36.890Z,20.87
2022-08-24T04:21:04.628Z,20.85
2022-08-24T04:23:47.089Z,20.91
2022-08-24T04:26:15.607Z,21.04
2022-08-24T04:28:42.348Z,21.03
2022-08-24T04:31:09.116Z,20.97
2022-08-24T04:33:36.321Z,21.00
2022-08-24T04:36:08.120Z,21.05
2022-08-24T04:38:35.037Z,20.95
2022-08-24T04:41:05.479Z,20.92
2022-08-24T04:43:34.799Z,20.87
2022-08-24T04:46:05.784Z,20.84
2022-08-24T04:48:32.366Z,20.89
2022-08-24T04:51:07.502Z,20.88
2022-08-24T04:53:36.952Z,20.99
2022-08-24T04:56:04.833Z,21.09
2022-08-24T04:58:31.385Z,21.04
2022-08-24T05:00:57.890Z,20.96
2022-08-24T05:03:25.054Z,20.89
2022-08-24T05:05:51.589Z,20.92
2022-08-24T05:08:19.665Z,20.96
2022-08-24T05:10:48.462Z,20.95
2022-08-24T05:13:16.244Z,20.88
2022-08-24T05:15:44.904Z,20.79
2022-08-24T05:18:12.096Z,20.78
2022-08-24T05:20:42.684Z,20.85
2022-08-24T05:23:10.208Z,20.74
2022-08-24T05:25:37.919Z,20.68
2022-08-24T05:28:05.232Z,20.76
2022-08-24T05:30:32.459Z,20.72
2022-08-24T05:32:59.290Z,20.83
2022-08-24T05:35:25.836Z,20.78
2022-08-24T05:37:52.347Z,20.73
2022-08-24T05:40:20.218Z,20.80
2022-08-24T05:42:46.774Z,20.83
2022-08-24T05:45:13.217Z,20.88
2022-08-24T05:47:39.805Z,20.94
2022-08-24T05:50:07.229Z,21.02
2022-08-24T05:52:34.860Z,21.13
2022-08-24T05:55:01.861Z,21.36
2022-08-24T05:57:33.536Z,21.48
2022-08-24T06:00:00.649Z,21.40
2022-08-24T06:02:27.540Z,21.48
2022-08-24T06:04:54.115Z,21.59
2022-08-24T06:07:20.619Z,21.83
2022-08-24T06:09:47.501Z,21.98
2022-08-24T06:12:13.984Z,21.91
2022-08-24T06:17:09.097Z,22.21
2022-08-24T06:19:36.248Z,22.67
2022-08-24T06:22:02.891Z,22.80
2022-08-24T06:24:47.973Z,22.81
2022-08-24T06:27:22.132Z,22.93
2022-08-24T06:29:51.021Z,22.57
2022-08-24T06:32:17.603Z,22.39
2022-08-24T06:34:44.108Z,22.30
2022-08-24T06:37:10.593Z,22.34
2022-08-24T06:39:37.260Z,22.47
2022-08-24T06:42:04.614Z,22.56
2022-08-24T06:44:31.980Z,22.73
2022-08-24T06:46:58.793Z,22.88
2022-08-24T06:49:25.425Z,22.92
2022-08-24T06:51:52.019Z,22.96
2022-08-24T06:54:20.871Z,23.20
2022-08-24T06:56:47.499Z,23.19
2022-08-24T06:59:13.985Z,23.34
2022-08-24T07:01:40.552Z,23.12
2022-08-24T07:04:07.079Z,23.16
2022-08-24T07:06:35.221Z,23.05
2022-08-24T07:09:01.737Z,23.25
2022-08-24T07:11:28.429Z,23.21
2022-08-24T07:13:54.871Z,23.37
2022-08-24T07:16:22.537Z,23.39
2022-08-24T07:18:50.574Z,23.61
2022-08-24T07:21:19.703Z,23.35
2022-08-24T07:23:47.965Z,23.15
2022-08-24T07:26:23.062Z,23.31
2022-08-24T07:28:54.231Z,23.39
2022-08-24T07:31:21.204Z,23.51
2022-08-24T07:33:48.238Z,23.56
2022-08-24T07:36:21.941Z,23.63
2022-08-24T07:38:48.935Z,23.83
2022-08-24T07:41:38.082Z,23.74
2022-08-24T07:44:01.993Z,23.89
2022-08-24T07:46:28.635Z,23.92
2022-08-24T07:49:05.008Z,23.93
2022-08-24T07:51:42.243Z,23.98
2022-08-24T07:54:13.557Z,24.09
2022-08-24T07:56:41.536Z,24.27
2022-08-24T07:59:12.484Z,24.38
2022-08-24T08:01:40.611Z,24.37
2022-08-24T08:04:07.815Z,24.45
2022-08-24T08:06:34.432Z,24.52
2022-08-24T08:09:02.593Z,24.67
2022-08-24T08:11:29.051Z,24.73
2022-08-24T08:13:55.508Z,24.77
2022-08-24T08:16:22.095Z,24.76
2022-08-24T08:18:52.424Z,24.81
2022-08-24T08:21:50.684Z,24.94
2022-08-24T08:24:18.105Z,24.93
2022-08-24T08:26:52.126Z,24.87
2022-08-24T08:29:19.911Z,25.00
2022-08-24T08:31:47.359Z,25.13
2022-08-24T08:34:14.199Z,25.19
2022-08-24T08:36:41.262Z,25.29
2022-08-24T08:39:10.069Z,25.52
2022-08-24T08:42:00.949Z,25.61
2022-08-24T08:44:46.721Z,25.60
2022-08-24T08:47:29.316Z,25.77
2022-08-24T08:50:14.168Z,25.83
2022-08-24T08:53:04.537Z,26.02
2022-08-24T08:55:34.017Z,26.18
2022-08-24T08:58:11.724Z,26.28
2022-08-24T09:00:41.258Z,26.39
2022-08-24T09:03:42.114Z,26.46
2022-08-24T09:06:22.405Z,26.47
2022-08-24T09:09:26.773Z,26.75
2022-08-24T09:12:15.567Z,26.70
2022-08-24T09:15:09.964Z,26.83
2022-08-24T09:17:42.497Z,27.12
2022-08-24T09:20:21.684Z,27.22
2022-08-24T09:22:57.317Z,27.16
2022-08-24T09:25:46.054Z,27.08
2022-08-24T09:28:32.961Z,27.20
2022-08-24T09:31:26.516Z,27.35
2022-08-24T09:34:03.499Z,27.54
2022-08-24T09:36:40.170Z,27.92
2022-08-24T09:39:32.668Z,28.18
2022-08-24T09:42:06.941Z,28.26
2022-08-24T09:44:58.969Z,28.14
2022-08-24T09:47:50.438Z,28.15
2022-08-24T09:50:19.970Z,28.16
2022-08-24T09:53:10.197Z,28.15
2022-08-24T09:55:39.664Z,28.04
2022-08-24T09:58:06.100Z,28.23
2022-08-24T10:00:47.852Z,28.61
2022-08-24T10:03:29.829Z,28.55
2022-08-24T10:06:02.871Z,28.32
2022-08-24T10:08:50.144Z,28.61
2022-08-24T10:11:44.139Z,28.75
2022-08-24T10:14:34.776Z,28.49
2022-08-24T10:17:04.132Z,28.65
2022-08-24T10:19:56.870Z,28.91
2022-08-24T10:22:41.646Z,29.30
2022-08-24T10:25:15.365Z,29.21
2022-08-24T10:27:50.946Z,29.10
2022-08-24T10:30:46.519Z,29.22
2022-08-24T10:33:26.990Z,29.15
2022-08-24T10:36:23.171Z,28.81
2022-08-24T10:39:41.137Z,28.64
2022-08-24T10:43:16.792Z,28.75
2022-08-24T10:46:02.241Z,29.05
2022-08-24T10:48:33.445Z,29.07
2022-08-24T10:51:30.095Z,29.38
2022-08-24T10:53:58.893Z,29.40
2022-08-24T10:57:12.212Z,29.31
2022-08-24T11:00:04.807Z,29.43
2022-08-24T11:02:31.622Z,29.42
2022-08-24T11:05:01.745Z,29.13
2022-08-24T11:07:29.392Z,28.88
2022-08-24T11:10:00.035Z,29.03
2022-08-24T11:12:37.198Z,29.06
2022-08-24T11:15:18.517Z,29.11
2022-08-24T11:17:56.532Z,29.36
2022-08-24T11:20:41.209Z,29.38
2022-08-24T11:23:14.666Z,29.23
2022-08-24T11:26:14.035Z,29.32
2022-08-24T11:28:46.583Z,29.28
2022-08-24T11:31:21.606Z,29.20
2022-08-24T11:33:52.984Z,28.97
2022-08-24T11:36:27.833Z,29.22
2022-08-24T11:39:22.018Z,29.51
2022-08-24T11:42:07.393Z,29.39
2022-08-24T11:44:58.387Z,29.40
2022-08-24T11:47:54.168Z,29.36
2022-08-24T11:50:41.335Z,29.28
2022-08-24T11:53:16.508Z,29.31
2022-08-24T11:55:57.497Z,29.48
2022-08-24T11:59:01.502Z,29.50
2022-08-24T12:01:35.646Z,29.68
2022-08-24T12:04:27.497Z,29.51
2022-08-24T12:07:03.109Z,29.52
2022-08-24T12:09:57.581Z,29.33
2022-08-24T12:12:33.533Z,29.49
2022-08-24T12:15:15.999Z,29.52
2022-08-24T12:17:51.137Z,29.32
2022-08-24T12:20:32.064Z,29.43
2022-08-24T12:23:11.680Z,29.61
2022-08-24T12:25:57.051Z,29.77
2022-08-24T12:28:32.350Z,29.59
2022-08-24T12:31:08.300Z,29.58
2022-08-24T12:33:38.533Z,29.53
2022-08-24T12:36:13.050Z,29.68
2022-08-24T12:38:45.717Z,29.82
2022-08-24T12:41:29.331Z,29.77
2022-08-24T12:44:02.963Z,29.67
2022-08-24T12:46:30.426Z,29.68
2022-08-24T12:49:05.560Z,29.62
2022-08-24T12:51:54.265Z,29.76
2022-08-24T12:54:48.931Z,29.64
2022-08-24T12:57:58.833Z,29.40
2022-08-24T13:00:36.927Z,29.33
2022-08-24T13:03:07.901Z,29.50
2022-08-24T13:05:43.886Z,29.48
2022-08-24T13:08:38.066Z,29.54
2022-08-24T13:11:30.765Z,29.52
2022-08-24T13:13:57.377Z,29.72
2022-08-24T13:16:47.991Z,29.69
2022-08-24T13:19:23.222Z,29.61
2022-08-24T13:22:15.799Z,29.72
2022-08-24T13:24:44.405Z,29.88
2022-08-24T13:27:13.683Z,29.71
2022-08-24T13:29:45.035Z,29.53
2022-08-24T13:32:44.216Z,29.65
2022-08-24T13:35:53.922Z,29.66
2022-08-24T13:38:35.332Z,29.66
2022-08-24T13:41:07.901Z,29.66
2022-08-24T13:43:51.643Z,29.75
2022-08-24T13:46:36.739Z,29.88
2022-08-24T13:49:15.375Z,29.75
2022-08-24T13:51:56.121Z,29.68
2022-08-24T13:54:32.725Z,29.58
2022-08-24T13:57:25.667Z,29.64
2022-08-24T14:00:14.648Z,29.49
2022-08-24T14:02:54.479Z,29.45
2022-08-24T14:05:43.555Z,29.61
2022-08-24T14:08:13.137Z,29.71
2022-08-24T14:10:57.778Z,29.79
2022-08-24T14:14:05.475Z,29.78
2022-08-24T14:16:59.614Z,29.73
2022-08-24T14:19:41.088Z,29.51
2022-08-24T14:22:29.711Z,29.49
2022-08-24T14:25:17.059Z,29.47
2022-08-24T14:27:47.551Z,29.59
2022-08-24T14:30:19.888Z,29.69
2022-08-24T14:32:58.682Z,29.69
2022-08-24T14:35:30.595Z,29.66
2022-08-24T14:38:12.403Z,29.69
2022-08-24T14:41:18.326Z,29.71
2022-08-24T14:44:07.823Z,29.60
2022-08-24T14:46:47.891Z,29.51
2022-08-24T14:49:18.194Z,29.39
2022-08-24T14:51:50.716Z,29.43
2022-08-24T14:54:36.346Z,29.61
2022-08-24T14:57:21.827Z,29.67
2022-08-24T14:59:56.435Z,29.66
2022-08-24T15:02:31.940Z,29.65
2022-08-24T15:05:20.827Z,29.57
2022-08-24T15:08:08.624Z,29.51
2022-08-24T15:10:43.501Z,29.59
2022-08-24T15:13:32.509Z,29.74
2022-08-24T15:16:23.428Z,29.66
2022-08-24T15:19:16.649Z,29.55
2022-08-24T15:21:59.166Z,29.62
2022-08-24T15:24:42.474Z,29.69
2022-08-24T15:27:18.382Z,29.66
2022-08-24T15:30:00.703Z,29.63
2022-08-24T15:32:53.036Z,29.60
2022-08-24T15:35:40.546Z,29.60
2022-08-24T15:38:26.035Z,29.48
2022-08-24T15:41:04.787Z,29.49
2022-08-24T15:43:32.668Z,29.58
2022-08-24T15:45:59.688Z,29.62
2022-08-24T15:48:26.922Z,29.51
2022-08-24T15:50:55.866Z,29.52
2022-08-24T15:53:30.671Z,29.56
2022-08-24T15:56:12.830Z,29.56
2022-08-24T15:58:39.533Z,29.54
2022-08-24T16:01:30.619Z,29.44
2022-08-24T16:04:02.140Z,29.48
2022-08-24T16:06:31.826Z,29.48
2022-08-24T16:09:00.334Z,29.53
2022-08-24T16:11:40.080Z,29.53
2022-08-24T16:14:23.289Z,29.53
2022-08-24T16:16:49.929Z,29.47
2022-08-24T16:19:24.334Z,29.39
2022-08-24T16:21:55.373Z,29.35
2022-08-24T16:24:35.064Z,29.34
2022-08-24T16:27:12.240Z,29.30
2022-08-24T16:29:38.913Z,29.22
2022-08-24T16:32:21.608Z,29.25
2022-08-24T16:35:17.771Z,29.20
2022-08-24T16:37:44.287Z,29.19
2022-08-24T16:40:11.403Z,29.18
2022-08-24T16:42:39.889Z,29.18
2022-08-24T16:45:10.128Z,29.16
2022-08-24T16:47:36.629Z,29.11
2022-08-24T16:50:04.400Z,29.07
2022-08-24T16:52:30.873Z,29.05
2022-08-24T16:54:57.622Z,29.05
2022-08-24T16:57:29.525Z,29.03
2022-08-24T16:59:56.327Z,28.98
2022-08-24T17:02:25.710Z,28.96
2022-08-24T17:04:53.289Z,28.94
2022-08-24T17:07:26.399Z,28.88
2022-08-24T17:09:54.124Z,28.86
2022-08-24T17:12:21.025Z,28.82
2022-08-24T17:14:47.937Z,28.76
2022-08-24T17:17:21.568Z,28.68
2022-08-24T17:19:53.547Z,28.62
2022-08-24T17:22:21.476Z,28.56
2022-08-24T17:24:47.944Z,28.51
2022-08-24T17:27:14.688Z,28.46
2022-08-24T17:29:44.373Z,28.41
2022-08-24T17:32:11.358Z,28.36
2022-08-24T17:34:37.975Z,28.37
2022-08-24T17:37:04.819Z,28.28
2022-08-24T17:39:31.499Z,28.19
2022-08-24T17:41:58.754Z,28.14
2022-08-24T17:44:28.283Z,28.08
2022-08-24T17:46:58.095Z,28.01
2022-08-24T17:49:25.950Z,27.95
2022-08-24T17:51:53.671Z,27.89
2022-08-24T17:54:20.176Z,27.86
2022-08-24T17:56:48.725Z,27.78
2022-08-24T17:59:23.789Z,27.71
2022-08-24T18:02:05.723Z,27.65
2022-08-24T18:04:34.646Z,27.52
2022-08-24T18:07:06.063Z,27.56
2022-08-24T18:09:48.308Z,27.49
2022-08-24T18:12:17.017Z,27.42
2022-08-24T18:14:44.324Z,27.33
2022-08-24T18:17:15.257Z,27.32
2022-08-24T18:19:41.753Z,27.30
2022-08-24T18:22:08.408Z,27.27
2022-08-24T18:24:34.919Z,27.21
2022-08-24T18:27:10.147Z,27.12
2022-08-24T18:29:39.816Z,27.00
2022-08-24T18:32:06.901Z,26.56
2022-08-24T18:34:34.234Z,26.34
2022-08-24T18:37:01.266Z,26.23
2022-08-24T18:39:27.827Z,26.11
2022-08-24T18:41:57.879Z,26.03
2022-08-24T18:44:28.324Z,26.03
2022-08-24T18:46:58.409Z,26.04
2022-08-24T18:49:24.956Z,26.04
2022-08-24T18:51:51.796Z,25.96
2022-08-24T18:54:24.617Z,25.87
2022-08-24T18:56:52.098Z,25.82
2022-08-24T18:59:21.161Z,25.78
2022-08-24T19:02:08.727Z,25.76
2022-08-24T19:04:44.255Z,25.73
2022-08-24T19:07:11.088Z,25.71
2022-08-24T19:09:37.574Z,25.70
2022-08-24T19:12:05.026Z,25.66
2022-08-24T19:14:32.951Z,25.64
2022-08-24T19:16:59.611Z,25.63
2022-08-24T19:19:26.117Z,25.59
2022-08-24T19:21:53.542Z,25.55
2022-08-24T19:24:25.935Z,25.52
2022-08-24T19:26:53.281Z,25.49
2022-08-24T19:29:38.851Z,25.49
2022-08-24T19:32:10.124Z,25.45
2022-08-24T19:34:48.861Z,25.45
2022-08-24T19:37:15.346Z,25.46
2022-08-24T19:39:41.832Z,25.48
2022-08-24T19:42:10.971Z,25.47
2022-08-24T19:44:56.668Z,25.50
2022-08-24T19:47:24.203Z,25.50
2022-08-24T19:49:50.768Z,25.46
2022-08-24T19:52:17.559Z,25.42
2022-08-24T19:54:46.148Z,25.41
2022-08-24T19:57:24.438Z,25.40
2022-08-24T19:59:52.683Z,25.38
2022-08-24T20:02:19.291Z,25.38
2022-08-24T20:04:45.807Z,25.37
2022-08-24T20:07:16.926Z,25.31
2022-08-24T20:09:43.811Z,25.33
2022-08-24T20:12:10.588Z,25.35
2022-08-24T20:14:37.610Z,25.34
2022-08-24T20:17:05.452Z,25.38
2022-08-24T20:19:37.530Z,25.37
2022-08-24T20:22:08.927Z,25.30
2022-08-24T20:24:40.217Z,25.27
2022-08-24T20:27:06.700Z,25.34
2022-08-24T20:29:33.303Z,25.32
2022-08-24T20:32:02.345Z,25.30
2022-08-24T20:34:29.564Z,25.31
2022-08-24T20:36:56.795Z,25.29
2022-08-24T20:39:27.031Z,25.20
2022-08-24T20:41:53.668Z,25.20
2022-08-24T20:44:21.039Z,25.22
2022-08-24T20:46:50.094Z,25.29
2022-08-24T20:49:19.430Z,25.30
2022-08-24T20:51:46.047Z,25.24
2022-08-24T20:54:14.632Z,25.19
2022-08-24T20:56:43.982Z,25.22
2022-08-24T20:59:12.502Z,25.22
2022-08-24T21:01:42.296Z,25.17
2022-08-24T21:04:09.803Z,25.18
2022-08-24T21:06:37.440Z,25.12
2022-08-24T21:09:05.461Z,25.05
2022-08-24T21:11:32.921Z,24.92
2022-08-24T21:14:00.904Z,24.89
2022-08-24T21:16:27.521Z,24.76
2022-08-24T21:18:54.058Z,24.78
2022-08-24T21:21:20.599Z,24.71
2022-08-24T21:23:47.059Z,24.68
2022-08-24T21:26:24.577Z,24.68
2022-08-24T21:28:52.091Z,24.68
2022-08-24T21:31:18.656Z,24.64
2022-08-24T21:34:03.845Z,24.67
2022-08-24T21:36:31.823Z,24.51
2022-08-24T21:38:58.635Z,24.37
2022-08-24T21:41:29.429Z,24.34
2022-08-24T21:43:56.766Z,24.33
2022-08-24T21:46:33.759Z,24.36
2022-08-24T21:49:00.952Z,24.36
2022-08-24T21:51:28.819Z,24.31
2022-08-24T21:53:59.675Z,24.29
2022-08-24T21:56:29.440Z,24.05
2022-08-24T21:58:55.947Z,23.90
2022-08-24T22:01:22.498Z,23.83
2022-08-24T22:03:49.221Z,23.84
2022-08-24T22:06:15.969Z,23.82
2022-08-24T22:08:43.566Z,23.81
2022-08-24T22:11:15.727Z,23.80
2022-08-24T22:13:42.511Z,23.66
2022-08-24T22:16:11.176Z,23.66
2022-08-24T22:18:38.731Z,23.62
2022-08-24T22:21:08.186Z,23.67
2022-08-24T22:23:35.522Z,23.59
2022-08-24T22:26:02.766Z,23.49
2022-08-24T22:28:30.150Z,23.38
2022-08-24T22:30:56.779Z,23.32
2022-08-24T22:33:24.041Z,23.23
2022-08-24T22:35:51.737Z,23.21
2022-08-24T22:38:19.767Z,23.21
2022-08-24T22:40:47.276Z,23.31
2022-08-24T22:43:13.889Z,23.43
2022-08-24T22:45:40.523Z,23.45
2022-08-24T22:48:07.021Z,23.52
2022-08-24T22:50:33.559Z,23.45
2022-08-24T22:53:00.001Z,23.28
2022-08-24T22:55:26.546Z,23.16
2022-08-24T22:57:53.304Z,23.10
2022-08-24T23:00:20.426Z,23.09
2022-08-24T23:02:46.882Z,23.24
2022-08-24T23:05:13.412Z,23.35
2022-08-24T23:07:39.960Z,23.33
2022-08-24T23:10:07.486Z,23.29
2022-08-24T23:12:33.961Z,23.17
2022-08-24T23:15:00.700Z,23.14
2022-08-24T23:17:27.176Z,23.04
2022-08-24T23:20:00.149Z,22.85
2022-08-24T23:22:31.600Z,22.86
2022-08-24T23:24:59.223Z,22.74
2022-08-24T23:27:26.679Z,22.83
2022-08-24T23:30:02.297Z,22.86
2022-08-24T23:32:28.845Z,22.93
2022-08-24T23:34:57.272Z,22.88
2022-08-24T23:37:24.326Z,22.98
2022-08-24T23:39:50.960Z,22.95
2022-08-24T23:42:17.483Z,22.98
2022-08-24T23:44:44.016Z,23.00
2022-08-24T23:47:10.698Z,23.02
2022-08-24T23:49:37.230Z,22.84
2022-08-24T23:52:03.828Z,22.75
2022-08-24T23:54:30.351Z,22.65
2022-08-24T23:56:57.436Z,22.65
2022-08-24T23:59:27.505Z,22.69
